Valle Di Nervion — IBPC — position and weather

sailwx.info

Track history (hours):
 
Tides and Currents Weather Stations Pressure Air Temp Water Temp Dewpoint Dewpoint Depression Visibility Wind Speed Wind Dir Waves Ship Positions

Valle Di Nervion

Last reported at 2015-Mar-01 16:13 UTC. Time now 2015-Mar-06 12:37 UTC.
Position N 38°13' E 015°36'.

Length 176 m; draft 9 m.

Type: Ship (hazmat cat D). MMSI: 247109500.

Date/timePositionNaut miles runAvg speedWind from/ knotsBaromVisibWave heightAir tempDewpointWater temp
2015-Mar-01 16:13N 38°13' E 015°36'7 6.5
2015-Mar-01 15:07N 38°20' E 015°32'712.5
2015-Mar-01 14:33N 38°18' E 015°23'7 5.9
2015-Mar-01 13:19N 38°13' E 015°17'0 0.0
2015-Mar-01 12:31N 38°13' E 015°17'0 0.3
2015-Mar-01 11:33N 38°13' E 015°16'1 0.5
2015-Mar-01 10:31N 38°13' E 015°16'0 0.0
2015-Mar-01 09:31N 38°13' E 015°16'0 0.0
2015-Mar-01 08:31N 38°13' E 015°16'0 0.0
2015-Mar-01 07:31N 38°13' E 015°16'0 0.0
2015-Mar-01 06:31N 38°13' E 015°16'0 0.0
2015-Feb-28 18:04N 38°13' E 015°16'0 0.0
2015-Feb-28 17:28N 38°13' E 015°16'0 0.0
2015-Feb-28 16:28N 38°13' E 015°16'0 0.0
2015-Feb-28 15:28N 38°13' E 015°16'0 0.0
2015-Feb-28 14:28N 38°13' E 015°16'0 0.0
2015-Feb-28 13:28N 38°13' E 015°16'0 0.0
2015-Feb-28 12:28N 38°13' E 015°16'0 0.0
2015-Feb-28 11:28N 38°13' E 015°16'0 0.0
2015-Feb-28 10:31N 38°13' E 015°16'0 0.0
2015-Feb-28 09:31N 38°13' E 015°16'0 0.0
2015-Feb-28 08:31N 38°13' E 015°16'0 0.0
2015-Feb-28 07:31N 38°13' E 015°16'0 0.0
2015-Feb-28 06:30N 38°13' E 015°16'0 0.0
2015-Feb-27 18:30N 38°13' E 015°16'0 0.0
2015-Feb-27 17:30N 38°13' E 015°16'0 0.0
2015-Feb-27 16:30N 38°13' E 015°16'0 0.0
2015-Feb-27 15:27N 38°13' E 015°16'0 0.0
2015-Feb-27 14:33N 38°13' E 015°16'1 0.6
2015-Feb-27 13:33N 38°13' E 015°17'0 0.2
2015-Feb-27 12:32N 38°13' E 015°17'0 0.0
2015-Feb-27 11:32N 38°13' E 015°17'0 0.0
2015-Feb-27 10:32N 38°13' E 015°17'0 0.1
2015-Feb-27 09:32N 38°13' E 015°17'0 0.1
2015-Feb-27 08:32N 38°13' E 015°17'0 0.1
2015-Feb-27 07:32N 38°13' E 015°17'0 0.0
2015-Feb-27 06:32N 38°13' E 015°17'0 0.0
2015-Feb-26 18:32N 38°13' E 015°17'0 0.0
2015-Feb-26 17:32N 38°13' E 015°17'0 0.0
2015-Feb-26 16:32N 38°13' E 015°17'0 0.0
2015-Feb-26 15:32N 38°13' E 015°17'0 0.0
2015-Feb-26 14:32N 38°13' E 015°17'0 0.0
2015-Feb-26 13:32N 38°13' E 015°17'0 0.1
2015-Feb-26 12:32N 38°13' E 015°17'0 0.0
2015-Feb-26 11:32N 38°13' E 015°17'0 0.1
2015-Feb-26 10:32N 38°13' E 015°17'0 0.2
2015-Feb-26 09:32N 38°13' E 015°17'0 0.2
2015-Feb-26 08:32N 38°13' E 015°17'0 0.1
2015-Feb-26 07:32N 38°13' E 015°17'0 0.0
2015-Feb-25 17:31N 38°13' E 015°17'0 0.1
2015-Feb-25 16:31N 38°13' E 015°17'1 1.3
2015-Feb-25 15:33N 38°14' E 015°17'1110.4
2015-Feb-25 14:32N 38°19' E 015°29'  
Track history (hours):
 
Tides and Currents Weather Stations Pressure Air Temp Water Temp Dewpoint Dewpoint Depression Visibility Wind Speed Wind Dir Waves Ship Positions

Valle Di Nervion

Last reported at 2015-Mar-01 16:13 UTC. Time now 2015-Mar-06 12:37 UTC.
Position N 38°13' E 015°36'.

Length 176 m; draft 9 m.

Type: Ship (hazmat cat D). MMSI: 247109500.

Date/timePositionNaut miles runAvg speedWind from/ knotsBaromVisibWave heightAir tempDewpointWater temp
2015-Mar-01 16:13N 38°13' E 015°36'7 6.5
2015-Mar-01 15:07N 38°20' E 015°32'712.5
2015-Mar-01 14:33N 38°18' E 015°23'7 5.9
2015-Mar-01 13:19N 38°13' E 015°17'0 0.0
2015-Mar-01 12:31N 38°13' E 015°17'0 0.3
2015-Mar-01 11:33N 38°13' E 015°16'1 0.5
2015-Mar-01 10:31N 38°13' E 015°16'0 0.0
2015-Mar-01 09:31N 38°13' E 015°16'0 0.0
2015-Mar-01 08:31N 38°13' E 015°16'0 0.0
2015-Mar-01 07:31N 38°13' E 015°16'0 0.0
2015-Mar-01 06:31N 38°13' E 015°16'0 0.0
2015-Feb-28 18:04N 38°13' E 015°16'0 0.0
2015-Feb-28 17:28N 38°13' E 015°16'0 0.0
2015-Feb-28 16:28N 38°13' E 015°16'0 0.0
2015-Feb-28 15:28N 38°13' E 015°16'0 0.0
2015-Feb-28 14:28N 38°13' E 015°16'0 0.0
2015-Feb-28 13:28N 38°13' E 015°16'0 0.0
2015-Feb-28 12:28N 38°13' E 015°16'0 0.0
2015-Feb-28 11:28N 38°13' E 015°16'0 0.0
2015-Feb-28 10:31N 38°13' E 015°16'0 0.0
2015-Feb-28 09:31N 38°13' E 015°16'0 0.0
2015-Feb-28 08:31N 38°13' E 015°16'0 0.0
2015-Feb-28 07:31N 38°13' E 015°16'0 0.0
2015-Feb-28 06:30N 38°13' E 015°16'0 0.0
2015-Feb-27 18:30N 38°13' E 015°16'0 0.0
2015-Feb-27 17:30N 38°13' E 015°16'0 0.0
2015-Feb-27 16:30N 38°13' E 015°16'0 0.0
2015-Feb-27 15:27N 38°13' E 015°16'0 0.0
2015-Feb-27 14:33N 38°13' E 015°16'1 0.6
2015-Feb-27 13:33N 38°13' E 015°17'0 0.2
2015-Feb-27 12:32N 38°13' E 015°17'0 0.0
2015-Feb-27 11:32N 38°13' E 015°17'0 0.0
2015-Feb-27 10:32N 38°13' E 015°17'0 0.1
2015-Feb-27 09:32N 38°13' E 015°17'0 0.1
2015-Feb-27 08:32N 38°13' E 015°17'0 0.1
2015-Feb-27 07:32N 38°13' E 015°17'0 0.0
2015-Feb-27 06:32N 38°13' E 015°17'0 0.0
2015-Feb-26 18:32N 38°13' E 015°17'0 0.0
2015-Feb-26 17:32N 38°13' E 015°17'0 0.0
2015-Feb-26 16:32N 38°13' E 015°17'0 0.0
2015-Feb-26 15:32N 38°13' E 015°17'0 0.0
2015-Feb-26 14:32N 38°13' E 015°17'0 0.0
2015-Feb-26 13:32N 38°13' E 015°17'0 0.1
2015-Feb-26 12:32N 38°13' E 015°17'0 0.0
2015-Feb-26 11:32N 38°13' E 015°17'0 0.1
2015-Feb-26 10:32N 38°13' E 015°17'0 0.2
2015-Feb-26 09:32N 38°13' E 015°17'0 0.2
2015-Feb-26 08:32N 38°13' E 015°17'0 0.1
2015-Feb-26 07:32N 38°13' E 015°17'0 0.0
2015-Feb-25 17:31N 38°13' E 015°17'0 0.1
2015-Feb-25 16:31N 38°13' E 015°17'1 1.3
2015-Feb-25 15:33N 38°14' E 015°17'1110.4
2015-Feb-25 14:32N 38°19' E 015°29'  

Dump ship's entire track history